Huvudsida
METAR-TAF:

METAR-TAF

Flygplatser :

Åbo, Finland

Åbo flygplats

latitud: 60-31N, longitud: 022-16E, höjd: 49 m

Aktuellt väderrapport

Denna rapport gjordes för 7 minuter sedan, klockan 18:20 UTC
Vind 6 kt från ost
Temperatur 7°C
Fuktighet 76%
Tryck 1015 hPa
Sikt 10 km eller mer

METAR: EFTU 221820Z AUTO 08006KT 9999 OVC041/// 07/03 Q1015

Tid: 21:27 (18:27 UTC)

Väderprognos

Denna rapport gjordes för 50 minuter sedan, klockan 17:37 UTC
Prognos gäller från 22 kl. 18 UTC till 23 kl. 18 UTC
Vind 6 kt från ost
Sikt 10 km eller mer
Brutna moln på en höjd av 3000 ft
Blir
från 23 kl. 07 UTC till 23 kl. 09 UTC
Vind 10 kt från syd

TAF: EFTU 221737Z 2218/2318 09006KT 9999 BKN030 BECMG 2307/2309 17010KT

Aktuella väderrapporter och prognoser från 4000 flygplatser (METAR- och TAF-rapporter).

De tillgängliga stationerna syns som gula och röda prickar på kartan.

För musen över prickarna för att se namnen på stationerna.

Klicka sedan för att få väderrapporter och prognoser.

För att ändra kartan: Klicka på de gröna knapparna med ett svart kors på för att zooma in; den gröna knappen med ett streck på för att zooma ut; eller på de gröna pilarna för angränsande kartor.


METAR-TAF: